createdAt,value
2024-01-15T00:00:12.770Z,986.59
2024-01-15T00:00:22.231Z,986.59
2024-01-15T00:00:31.716Z,986.53
2024-01-15T00:00:41.035Z,986.60
2024-01-15T00:00:50.457Z,986.57
2024-01-15T00:00:59.943Z,986.57
2024-01-15T00:01:18.788Z,986.60
2024-01-15T00:01:28.065Z,986.59
2024-01-15T00:01:37.468Z,986.59
2024-01-15T00:01:46.937Z,986.55
2024-01-15T00:01:56.227Z,986.56
2024-01-15T00:02:05.689Z,986.58
2024-01-15T00:02:24.506Z,986.58
2024-01-15T00:02:33.933Z,986.50
2024-01-15T00:02:43.307Z,986.58
2024-01-15T00:02:52.699Z,986.50
2024-01-15T00:03:02.163Z,986.55
2024-01-15T00:03:11.513Z,986.46
2024-01-15T00:03:30.353Z,986.51
2024-01-15T00:03:39.775Z,986.48
2024-01-15T00:03:49.164Z,986.43
2024-01-15T00:03:58.595Z,986.45
2024-01-15T00:04:07.935Z,986.48
2024-01-15T00:04:17.403Z,986.39
2024-01-15T00:04:36.133Z,986.37
2024-01-15T00:04:45.512Z,986.41
2024-01-15T00:04:54.917Z,986.38
2024-01-15T00:05:04.254Z,986.40
2024-01-15T00:05:13.684Z,986.45
2024-01-15T00:05:23.090Z,986.41
2024-01-15T00:05:41.938Z,986.40
2024-01-15T00:05:51.360Z,986.44
2024-01-15T00:06:00.741Z,986.44
2024-01-15T00:06:10.167Z,986.36
2024-01-15T00:06:19.630Z,986.39
2024-01-15T00:06:29.032Z,986.49
2024-01-15T00:06:47.827Z,986.41
2024-01-15T00:06:57.268Z,986.42
2024-01-15T00:07:06.554Z,986.37
2024-01-15T00:07:15.940Z,986.46
2024-01-15T00:07:25.435Z,986.41
2024-01-15T00:07:34.746Z,986.35
2024-01-15T00:07:53.613Z,986.35
2024-01-15T00:08:03.022Z,986.35
2024-01-15T00:08:12.426Z,986.35
2024-01-15T00:08:21.847Z,986.44
2024-01-15T00:08:31.381Z,986.36
2024-01-15T00:08:40.796Z,986.33
2024-01-15T00:08:59.649Z,986.40
2024-01-15T00:09:09.040Z,986.37
2024-01-15T00:09:18.407Z,986.42
2024-01-15T00:09:27.808Z,986.38
2024-01-15T00:09:37.183Z,986.35
2024-01-15T00:09:46.656Z,986.35
2024-01-15T00:10:05.987Z,986.28
2024-01-15T00:10:15.338Z,986.28
2024-01-15T00:10:24.740Z,986.30
2024-01-15T00:10:34.164Z,986.28
2024-01-15T00:10:43.692Z,986.28
2024-01-15T00:10:53.107Z,986.28
2024-01-15T00:11:11.908Z,986.24
2024-01-15T00:11:21.397Z,986.24
2024-01-15T00:11:30.792Z,986.34
2024-01-15T00:11:40.185Z,986.30
2024-01-15T00:11:49.602Z,986.23
2024-01-15T00:11:58.983Z,986.23
2024-01-15T00:12:17.819Z,986.22
2024-01-15T00:12:27.221Z,986.25
2024-01-15T00:12:36.681Z,986.30
2024-01-15T00:12:46.223Z,986.23
2024-01-15T00:12:55.535Z,986.27
2024-01-15T00:13:04.917Z,986.25
2024-01-15T00:13:23.740Z,986.22
2024-01-15T00:13:33.133Z,986.22
2024-01-15T00:13:42.531Z,986.19
2024-01-15T00:13:51.953Z,986.17
2024-01-15T00:14:01.478Z,986.09
2024-01-15T00:14:10.859Z,986.23
2024-01-15T00:14:29.650Z,986.16
2024-01-15T00:14:39.058Z,986.13
2024-01-15T00:14:48.411Z,986.10
2024-01-15T00:14:57.914Z,986.13
2024-01-15T00:15:07.348Z,986.14
2024-01-15T00:15:16.747Z,986.14
2024-01-15T00:15:35.638Z,986.16
2024-01-15T00:15:45.013Z,986.14
2024-01-15T00:15:54.410Z,986.19
2024-01-15T00:16:03.857Z,986.14
2024-01-15T00:16:13.254Z,986.18
2024-01-15T00:16:22.664Z,986.18
2024-01-15T00:16:41.516Z,986.19
2024-01-15T00:16:50.917Z,986.13
2024-01-15T00:17:00.357Z,986.09
2024-01-15T00:17:09.761Z,986.13
2024-01-15T00:17:19.218Z,986.11
2024-01-15T00:17:28.704Z,986.16
2024-01-15T00:17:47.419Z,986.16
2024-01-15T00:17:56.799Z,986.19
2024-01-15T00:18:06.483Z,986.09
2024-01-15T00:18:15.663Z,986.13
2024-01-15T00:18:25.067Z,986.14
2024-01-15T00:18:34.498Z,986.14
2024-01-15T00:18:53.321Z,986.13
2024-01-15T00:19:02.658Z,986.16
2024-01-15T00:19:12.031Z,986.15
2024-01-15T00:19:21.482Z,986.10
2024-01-15T00:19:30.866Z,986.16
2024-01-15T00:19:40.300Z,986.15
2024-01-15T00:19:59.082Z,986.13
2024-01-15T00:20:08.414Z,986.10
2024-01-15T00:20:17.839Z,986.11
2024-01-15T00:20:30.338Z,986.15
2024-01-15T00:20:36.612Z,986.15
2024-01-15T00:20:46.010Z,986.22
2024-01-15T00:21:04.860Z,986.13
2024-01-15T00:21:14.228Z,986.10
2024-01-15T00:21:23.600Z,986.12
2024-01-15T00:21:33.015Z,986.11
2024-01-15T00:21:42.474Z,986.12
2024-01-15T00:21:51.837Z,986.15
2024-01-15T00:22:10.624Z,986.13
2024-01-15T00:22:20.032Z,986.20
2024-01-15T00:22:29.432Z,986.15
2024-01-15T00:22:38.836Z,986.17
2024-01-15T00:22:48.252Z,986.19
2024-01-15T00:22:57.650Z,986.13
2024-01-15T00:23:16.442Z,986.14
2024-01-15T00:23:25.828Z,986.14
2024-01-15T00:23:35.238Z,986.14
2024-01-15T00:23:44.632Z,986.07
2024-01-15T00:23:54.039Z,986.11
2024-01-15T00:24:03.484Z,986.09
2024-01-15T00:24:22.292Z,986.10
2024-01-15T00:24:31.750Z,986.13
2024-01-15T00:24:41.113Z,986.09
2024-01-15T00:24:50.495Z,986.09
2024-01-15T00:24:59.846Z,986.07
2024-01-15T00:25:09.265Z,986.10
2024-01-15T00:25:28.087Z,986.09
2024-01-15T00:25:37.468Z,986.16
2024-01-15T00:25:46.862Z,986.13
2024-01-15T00:25:56.286Z,986.12
2024-01-15T00:26:07.274Z,986.03
2024-01-15T00:26:15.063Z,986.12
2024-01-15T00:26:33.850Z,986.13
2024-01-15T00:26:43.308Z,986.03
2024-01-15T00:26:52.696Z,986.18
2024-01-15T00:27:02.079Z,986.11
2024-01-15T00:27:11.532Z,986.10
2024-01-15T00:27:20.938Z,986.07
2024-01-15T00:27:39.719Z,986.12
2024-01-15T00:27:49.099Z,986.07
2024-01-15T00:27:58.497Z,986.07
2024-01-15T00:28:07.885Z,986.10
2024-01-15T00:28:17.269Z,986.07
2024-01-15T00:28:26.662Z,986.06
2024-01-15T00:28:45.529Z,986.04
2024-01-15T00:28:54.901Z,986.05
2024-01-15T00:29:04.319Z,986.06
2024-01-15T00:29:13.712Z,986.04
2024-01-15T00:29:23.114Z,986.03
2024-01-15T00:29:32.540Z,986.05
2024-01-15T00:29:51.357Z,986.03
2024-01-15T00:30:00.796Z,986.02
2024-01-15T00:30:10.288Z,986.00
2024-01-15T00:30:19.725Z,986.02
2024-01-15T00:30:29.110Z,986.02
2024-01-15T00:30:38.573Z,986.05
2024-01-15T00:30:57.309Z,986.00
2024-01-15T00:31:06.798Z,985.94
2024-01-15T00:31:16.175Z,985.97
2024-01-15T00:31:25.580Z,985.97
2024-01-15T00:31:34.903Z,986.03
2024-01-15T00:31:44.313Z,985.99
2024-01-15T00:32:03.125Z,985.92
2024-01-15T00:32:12.429Z,985.99
2024-01-15T00:32:21.846Z,985.95
2024-01-15T00:32:31.333Z,985.99
2024-01-15T00:32:40.779Z,985.93
2024-01-15T00:32:50.186Z,985.97
2024-01-15T00:33:09.145Z,985.97
2024-01-15T00:33:18.476Z,985.89
2024-01-15T00:33:27.819Z,985.96
2024-01-15T00:33:37.417Z,985.95
2024-01-15T00:33:46.718Z,985.90
2024-01-15T00:33:56.149Z,985.90
2024-01-15T00:34:14.875Z,985.97
2024-01-15T00:34:24.345Z,985.90
2024-01-15T00:34:33.700Z,985.93
2024-01-15T00:34:43.099Z,985.93
2024-01-15T00:34:52.650Z,985.89
2024-01-15T00:35:01.773Z,985.95
2024-01-15T00:35:20.634Z,985.89
2024-01-15T00:35:30.065Z,985.94
2024-01-15T00:35:39.454Z,985.93
2024-01-15T00:35:48.833Z,985.96
2024-01-15T00:35:58.341Z,986.03
2024-01-15T00:36:07.811Z,985.95
2024-01-15T00:36:26.607Z,985.96
2024-01-15T00:36:36.012Z,985.98
2024-01-15T00:36:45.453Z,985.95
2024-01-15T00:36:54.776Z,985.93
2024-01-15T00:37:04.172Z,985.92
2024-01-15T00:37:13.589Z,985.92
2024-01-15T00:37:32.444Z,985.94
2024-01-15T00:37:41.837Z,985.92
2024-01-15T00:37:51.257Z,985.84
2024-01-15T00:38:00.651Z,985.95
2024-01-15T00:38:10.058Z,985.94
2024-01-15T00:38:19.512Z,985.93
2024-01-15T00:38:38.338Z,985.89
2024-01-15T00:38:47.744Z,985.89
2024-01-15T00:38:57.210Z,985.87
2024-01-15T00:39:06.666Z,985.87
2024-01-15T00:39:16.017Z,985.81
2024-01-15T00:39:25.414Z,985.86
2024-01-15T00:39:44.274Z,985.77
2024-01-15T00:39:53.673Z,985.83
2024-01-15T00:40:03.093Z,985.80
2024-01-15T00:40:12.503Z,985.73
2024-01-15T00:40:21.925Z,985.79
2024-01-15T00:40:31.406Z,985.72
2024-01-15T00:40:50.182Z,985.69
2024-01-15T00:40:59.636Z,985.79
2024-01-15T00:41:09.036Z,985.73
2024-01-15T00:41:18.459Z,985.69
2024-01-15T00:41:27.862Z,985.78
2024-01-15T00:41:37.239Z,985.81
2024-01-15T00:41:56.057Z,985.73
2024-01-15T00:42:05.484Z,985.70
2024-01-15T00:42:14.864Z,985.66
2024-01-15T00:42:24.266Z,985.73
2024-01-15T00:42:33.697Z,985.62
2024-01-15T00:42:43.052Z,985.69
2024-01-15T00:43:01.895Z,985.72
2024-01-15T00:43:11.388Z,985.68
2024-01-15T00:43:20.791Z,985.74
2024-01-15T00:43:30.164Z,985.61
2024-01-15T00:43:39.555Z,985.61
2024-01-15T00:43:48.942Z,985.66
2024-01-15T00:44:07.715Z,985.60
2024-01-15T00:44:17.152Z,985.67
2024-01-15T00:44:26.598Z,985.65
2024-01-15T00:44:36.008Z,985.61
2024-01-15T00:44:45.412Z,985.59
2024-01-15T00:44:54.770Z,985.61
2024-01-15T00:45:13.677Z,985.58
2024-01-15T00:45:23.224Z,985.57
2024-01-15T00:45:32.458Z,985.60
2024-01-15T00:45:41.843Z,985.58
2024-01-15T00:45:51.245Z,985.60
2024-01-15T00:46:00.561Z,985.54
2024-01-15T00:46:19.308Z,985.58
2024-01-15T00:46:28.713Z,985.61
2024-01-15T00:46:38.093Z,985.64
2024-01-15T00:46:47.519Z,985.58
2024-01-15T00:46:56.898Z,985.62
2024-01-15T00:47:06.295Z,985.63
2024-01-15T00:47:25.084Z,985.60
2024-01-15T00:47:34.516Z,985.65
2024-01-15T00:47:43.902Z,985.61
2024-01-15T00:47:53.384Z,985.57
2024-01-15T00:48:02.776Z,985.59
2024-01-15T00:48:12.137Z,985.61
2024-01-15T00:48:30.968Z,985.60
2024-01-15T00:48:40.406Z,985.53
2024-01-15T00:48:49.848Z,985.53
2024-01-15T00:48:59.120Z,985.58
2024-01-15T00:49:08.548Z,985.57
2024-01-15T00:49:18.017Z,985.54
2024-01-15T00:49:36.660Z,985.56
2024-01-15T00:49:46.117Z,985.59
2024-01-15T00:49:55.458Z,985.56
2024-01-15T00:50:04.885Z,985.60
2024-01-15T00:50:14.289Z,985.54
2024-01-15T00:50:23.791Z,985.49
2024-01-15T00:50:42.515Z,985.46
2024-01-15T00:50:51.929Z,985.56
2024-01-15T00:51:01.396Z,985.59
2024-01-15T00:51:10.817Z,985.56
2024-01-15T00:51:20.202Z,985.55
2024-01-15T00:51:29.590Z,985.44
2024-01-15T00:51:48.407Z,985.50
2024-01-15T00:51:57.779Z,985.53
2024-01-15T00:52:07.157Z,985.49
2024-01-15T00:52:16.621Z,985.51
2024-01-15T00:52:26.031Z,985.55
2024-01-15T00:52:35.451Z,985.48
2024-01-15T00:52:54.291Z,985.50
2024-01-15T00:53:03.717Z,985.49
2024-01-15T00:53:13.119Z,985.47
2024-01-15T00:53:22.527Z,985.50
2024-01-15T00:53:31.926Z,985.41
2024-01-15T00:53:41.402Z,985.49
2024-01-15T00:54:00.173Z,985.51
2024-01-15T00:54:09.832Z,985.48
2024-01-15T00:54:18.983Z,985.42
2024-01-15T00:54:28.400Z,985.34
2024-01-15T00:54:37.834Z,985.46
2024-01-15T00:54:47.323Z,985.41
2024-01-15T00:55:05.943Z,985.51
2024-01-15T00:55:15.369Z,985.43
2024-01-15T00:55:24.795Z,985.48
2024-01-15T00:55:34.183Z,985.44
2024-01-15T00:55:43.574Z,985.42
2024-01-15T00:55:53.130Z,985.45
2024-01-15T00:56:11.771Z,985.43
2024-01-15T00:56:21.139Z,985.46
2024-01-15T00:56:30.539Z,985.52
2024-01-15T00:56:39.946Z,985.48
2024-01-15T00:56:49.332Z,985.42
2024-01-15T00:56:58.735Z,985.44
2024-01-15T00:57:17.553Z,985.45
2024-01-15T00:57:26.997Z,985.54
2024-01-15T00:57:36.382Z,985.46
2024-01-15T00:57:45.819Z,985.47
2024-01-15T00:57:55.187Z,985.48
2024-01-15T00:58:04.932Z,985.45
2024-01-15T00:58:23.778Z,985.49
2024-01-15T00:58:33.149Z,985.45
2024-01-15T00:58:42.547Z,985.51
2024-01-15T00:58:51.962Z,985.49
2024-01-15T00:59:01.360Z,985.46
2024-01-15T00:59:10.733Z,985.48
2024-01-15T00:59:29.514Z,985.45
2024-01-15T00:59:38.928Z,985.45
2024-01-15T00:59:48.365Z,985.44
2024-01-15T00:59:57.719Z,985.39
2024-01-15T01:00:07.282Z,985.46
2024-01-15T01:00:16.700Z,985.44
2024-01-15T01:00:35.543Z,985.46
2024-01-15T01:00:44.885Z,985.49
2024-01-15T01:00:54.264Z,985.46
2024-01-15T01:01:03.698Z,985.40
2024-01-15T01:01:13.255Z,985.46
2024-01-15T01:01:22.499Z,985.47
2024-01-15T01:01:41.329Z,985.43
2024-01-15T01:01:50.715Z,985.37
2024-01-15T01:02:00.090Z,985.34
2024-01-15T01:02:09.492Z,985.39
2024-01-15T01:02:18.911Z,985.29
2024-01-15T01:02:28.324Z,985.36
2024-01-15T01:02:47.248Z,985.40
2024-01-15T01:02:56.687Z,985.41
2024-01-15T01:03:06.129Z,985.38
2024-01-15T01:03:15.599Z,985.32
2024-01-15T01:03:25.096Z,985.36
2024-01-15T01:03:34.395Z,985.26
2024-01-15T01:03:53.265Z,985.31
2024-01-15T01:04:02.695Z,985.29
2024-01-15T01:04:12.445Z,985.30
2024-01-15T01:04:21.375Z,985.36
2024-01-15T01:04:30.830Z,985.42
2024-01-15T01:04:40.105Z,985.33
2024-01-15T01:04:58.931Z,985.36
2024-01-15T01:05:08.328Z,985.34
2024-01-15T01:05:17.845Z,985.41
2024-01-15T01:05:27.176Z,985.36
2024-01-15T01:05:36.635Z,985.30
2024-01-15T01:05:46.049Z,985.31
2024-01-15T01:06:04.816Z,985.26
2024-01-15T01:06:14.283Z,985.29
2024-01-15T01:06:23.672Z,985.29
2024-01-15T01:06:34.499Z,985.29
2024-01-15T01:06:42.489Z,985.24
2024-01-15T01:06:51.953Z,985.29
2024-01-15T01:07:10.708Z,985.27
2024-01-15T01:07:20.108Z,985.22
2024-01-15T01:07:29.513Z,985.29
2024-01-15T01:07:38.904Z,985.29
2024-01-15T01:07:48.329Z,985.31
2024-01-15T01:07:57.715Z,985.27
2024-01-15T01:08:16.521Z,985.30
2024-01-15T01:08:25.918Z,985.18
2024-01-15T01:08:35.319Z,985.28
2024-01-15T01:08:44.734Z,985.27
2024-01-15T01:08:54.175Z,985.32
2024-01-15T01:09:03.662Z,985.31
2024-01-15T01:09:22.417Z,985.20
2024-01-15T01:09:41.242Z,985.24
2024-01-15T01:09:50.688Z,985.24
2024-01-15T01:10:00.048Z,985.21
2024-01-15T01:10:09.455Z,985.21
2024-01-15T01:10:28.280Z,985.28
2024-01-15T01:10:37.671Z,985.19
2024-01-15T01:10:47.053Z,985.20
2024-01-15T01:10:56.505Z,985.21
2024-01-15T01:11:05.973Z,985.19
2024-01-15T01:11:15.394Z,985.19
2024-01-15T01:11:34.148Z,985.16
2024-01-15T01:11:43.583Z,985.19
2024-01-15T01:11:52.985Z,985.15
2024-01-15T01:12:02.358Z,985.13
2024-01-15T01:12:11.762Z,985.21
2024-01-15T01:12:21.136Z,985.16
2024-01-15T01:12:42.887Z,985.11
2024-01-15T01:12:49.888Z,985.12
2024-01-15T01:12:59.237Z,985.09
2024-01-15T01:13:08.599Z,985.07
2024-01-15T01:13:17.968Z,985.08
2024-01-15T01:13:27.350Z,985.10
2024-01-15T01:13:46.140Z,985.11
2024-01-15T01:13:55.561Z,985.12
2024-01-15T01:14:04.974Z,985.11
2024-01-15T01:14:14.447Z,985.06
2024-01-15T01:14:23.986Z,985.01
2024-01-15T01:14:33.273Z,985.01
2024-01-15T01:14:52.136Z,985.08
2024-01-15T01:15:01.616Z,985.05
2024-01-15T01:15:11.009Z,984.98
2024-01-15T01:15:20.374Z,984.93
2024-01-15T01:15:29.803Z,984.98
2024-01-15T01:15:39.206Z,985.04
2024-01-15T01:15:58.056Z,984.91
2024-01-15T01:16:07.382Z,984.86
2024-01-15T01:16:16.761Z,984.86
2024-01-15T01:16:26.180Z,984.84
2024-01-15T01:16:35.616Z,984.91
2024-01-15T01:16:45.028Z,984.85
2024-01-15T01:17:03.838Z,984.91
2024-01-15T01:17:13.224Z,984.89
2024-01-15T01:17:22.805Z,984.85
2024-01-15T01:17:32.292Z,984.87
2024-01-15T01:17:41.587Z,984.92
2024-01-15T01:17:51.055Z,984.85
2024-01-15T01:18:09.882Z,984.78
2024-01-15T01:18:19.280Z,984.82
2024-01-15T01:18:28.598Z,984.90
2024-01-15T01:18:38.258Z,984.91
2024-01-15T01:18:47.610Z,984.94
2024-01-15T01:18:57.003Z,984.86
2024-01-15T01:19:15.829Z,984.80
2024-01-15T01:19:25.207Z,984.89
2024-01-15T01:19:34.630Z,984.79
2024-01-15T01:19:44.051Z,984.90
2024-01-15T01:19:53.375Z,984.92
2024-01-15T01:20:03.042Z,984.86
2024-01-15T01:20:21.830Z,984.84
2024-01-15T01:20:31.242Z,984.88
2024-01-15T01:20:40.683Z,984.86
2024-01-15T01:20:49.910Z,984.88
2024-01-15T01:20:59.317Z,984.79
2024-01-15T01:21:08.755Z,984.87
2024-01-15T01:21:27.517Z,984.87
2024-01-15T01:21:36.939Z,984.88
2024-01-15T01:21:46.422Z,984.83
2024-01-15T01:21:55.808Z,984.81
2024-01-15T01:22:05.134Z,984.85
2024-01-15T01:22:14.534Z,984.80
2024-01-15T01:22:33.388Z,984.80
2024-01-15T01:22:42.770Z,984.84
2024-01-15T01:22:52.169Z,984.81
2024-01-15T01:23:01.570Z,984.91
2024-01-15T01:23:10.959Z,984.80
2024-01-15T01:23:20.371Z,984.78
2024-01-15T01:23:39.149Z,984.72
2024-01-15T01:23:48.559Z,984.74
2024-01-15T01:23:57.953Z,984.76
2024-01-15T01:24:07.425Z,984.75
2024-01-15T01:24:16.819Z,984.79
2024-01-15T01:24:28.980Z,984.73
2024-01-15T01:24:45.628Z,984.68
2024-01-15T01:24:55.025Z,984.68
2024-01-15T01:25:04.413Z,984.70
2024-01-15T01:25:13.878Z,984.72
2024-01-15T01:25:23.238Z,984.66
2024-01-15T01:25:32.634Z,984.69
2024-01-15T01:25:51.466Z,984.70
2024-01-15T01:26:00.792Z,984.73
2024-01-15T01:26:10.209Z,984.71
2024-01-15T01:26:19.627Z,984.80
2024-01-15T01:26:29.014Z,984.73
2024-01-15T01:26:38.441Z,984.72
2024-01-15T01:26:57.250Z,984.82
2024-01-15T01:27:06.696Z,984.72
2024-01-15T01:27:16.067Z,984.72
2024-01-15T01:27:25.457Z,984.67
2024-01-15T01:27:34.875Z,984.68
2024-01-15T01:27:44.528Z,984.68
2024-01-15T01:28:03.070Z,984.70
2024-01-15T01:28:12.466Z,984.64
2024-01-15T01:28:21.912Z,984.63
2024-01-15T01:28:31.359Z,984.64
2024-01-15T01:28:40.773Z,984.64
2024-01-15T01:28:50.164Z,984.69
2024-01-15T01:29:08.992Z,984.64
2024-01-15T01:29:18.382Z,984.64
2024-01-15T01:29:27.768Z,984.63
2024-01-15T01:29:37.195Z,984.67
2024-01-15T01:29:46.594Z,984.62
2024-01-15T01:29:56.081Z,984.62
2024-01-15T01:30:15.083Z,984.66
2024-01-15T01:30:24.368Z,984.64
2024-01-15T01:30:33.789Z,984.61
2024-01-15T01:30:43.106Z,984.61
2024-01-15T01:30:52.634Z,984.56
2024-01-15T01:31:01.993Z,984.56
2024-01-15T01:31:20.878Z,984.63
2024-01-15T01:31:30.396Z,984.64
2024-01-15T01:31:39.705Z,984.66
2024-01-15T01:31:49.050Z,984.53
2024-01-15T01:31:58.379Z,984.67
2024-01-15T01:32:07.786Z,984.62
2024-01-15T01:32:26.682Z,984.63
2024-01-15T01:32:36.164Z,984.53
2024-01-15T01:32:45.572Z,984.59
2024-01-15T01:32:54.951Z,984.64
2024-01-15T01:33:04.399Z,984.63
2024-01-15T01:33:13.877Z,984.63
2024-01-15T01:33:32.687Z,984.61
2024-01-15T01:33:42.267Z,984.62
2024-01-15T01:33:51.441Z,984.59
2024-01-15T01:34:00.878Z,984.61
2024-01-15T01:34:10.296Z,984.67
2024-01-15T01:34:19.743Z,984.65
2024-01-15T01:34:38.522Z,984.55
2024-01-15T01:34:47.891Z,984.62
2024-01-15T01:34:57.305Z,984.55
2024-01-15T01:35:06.693Z,984.61
2024-01-15T01:35:16.080Z,984.59
2024-01-15T01:35:25.509Z,984.64
2024-01-15T01:35:44.330Z,984.61
2024-01-15T01:35:53.726Z,984.59
2024-01-15T01:36:03.151Z,984.59
2024-01-15T01:36:12.597Z,984.53
2024-01-15T01:36:22.075Z,984.56
2024-01-15T01:36:31.433Z,984.57
2024-01-15T01:36:50.209Z,984.58
2024-01-15T01:36:59.595Z,984.52
2024-01-15T01:37:08.970Z,984.62
2024-01-15T01:37:18.377Z,984.60
2024-01-15T01:37:27.801Z,984.61
2024-01-15T01:37:37.193Z,984.63
2024-01-15T01:37:55.984Z,984.56
2024-01-15T01:38:05.371Z,984.57
2024-01-15T01:38:14.793Z,984.51
2024-01-15T01:38:24.198Z,984.57
2024-01-15T01:38:33.588Z,984.52
2024-01-15T01:38:42.992Z,984.56
2024-01-15T01:39:01.864Z,984.55
2024-01-15T01:39:11.381Z,984.43
2024-01-15T01:39:20.842Z,984.54
2024-01-15T01:39:30.221Z,984.56
2024-01-15T01:39:39.655Z,984.48
2024-01-15T01:39:49.132Z,984.52
2024-01-15T01:40:07.929Z,984.57
2024-01-15T01:40:17.362Z,984.52
2024-01-15T01:40:26.767Z,984.51
2024-01-15T01:40:36.151Z,984.54
2024-01-15T01:40:45.580Z,984.49
2024-01-15T01:40:54.966Z,984.48
2024-01-15T01:41:13.797Z,984.48
2024-01-15T01:41:23.244Z,984.50
2024-01-15T01:41:32.570Z,984.53
2024-01-15T01:41:41.947Z,984.43
2024-01-15T01:41:51.385Z,984.43
2024-01-15T01:42:00.781Z,984.44
2024-01-15T01:42:19.670Z,984.42
2024-01-15T01:42:29.088Z,984.45
2024-01-15T01:42:38.519Z,984.47
2024-01-15T01:42:47.861Z,984.45
2024-01-15T01:42:57.268Z,984.39
2024-01-15T01:43:06.652Z,984.51
2024-01-15T01:43:25.425Z,984.44
2024-01-15T01:43:34.831Z,984.29
2024-01-15T01:43:44.271Z,984.30
2024-01-15T01:43:53.676Z,984.47
2024-01-15T01:44:03.089Z,984.41
2024-01-15T01:44:12.488Z,984.35
2024-01-15T01:44:31.353Z,984.37
2024-01-15T01:44:40.749Z,984.31
2024-01-15T01:44:50.185Z,984.38
2024-01-15T01:44:59.853Z,984.46
2024-01-15T01:45:09.257Z,984.40
2024-01-15T01:45:18.731Z,984.40
2024-01-15T01:45:37.476Z,984.36
2024-01-15T01:45:46.919Z,984.44
2024-01-15T01:45:56.357Z,984.40
2024-01-15T01:46:05.658Z,984.40
2024-01-15T01:46:15.041Z,984.39
2024-01-15T01:46:24.437Z,984.44
2024-01-15T01:46:43.207Z,984.47
2024-01-15T01:46:52.572Z,984.39
2024-01-15T01:47:01.980Z,984.33
2024-01-15T01:47:11.387Z,984.36
2024-01-15T01:47:20.807Z,984.37
2024-01-15T01:47:30.243Z,984.32
2024-01-15T01:47:48.990Z,984.33
2024-01-15T01:47:58.479Z,984.35
2024-01-15T01:48:07.925Z,984.42
2024-01-15T01:48:17.378Z,984.34
2024-01-15T01:48:26.682Z,984.38
2024-01-15T01:48:36.127Z,984.42
2024-01-15T01:48:54.915Z,984.36
2024-01-15T01:49:04.371Z,984.36
2024-01-15T01:49:13.826Z,984.37
2024-01-15T01:49:23.246Z,984.35
2024-01-15T01:49:32.645Z,984.37
2024-01-15T01:49:42.025Z,984.33
2024-01-15T01:50:00.850Z,984.35
2024-01-15T01:50:10.266Z,984.33
2024-01-15T01:50:19.671Z,984.35
2024-01-15T01:50:29.051Z,984.37
2024-01-15T01:50:38.480Z,984.37
2024-01-15T01:50:47.921Z,984.34
2024-01-15T01:51:06.786Z,984.36
2024-01-15T01:51:16.118Z,984.42
2024-01-15T01:51:25.557Z,984.34
2024-01-15T01:51:35.009Z,984.32
2024-01-15T01:51:44.471Z,984.33
2024-01-15T01:51:53.820Z,984.38
2024-01-15T01:52:12.557Z,984.40
2024-01-15T01:52:21.960Z,984.37
2024-01-15T01:52:31.433Z,984.30
2024-01-15T01:52:40.836Z,984.31
2024-01-15T01:52:50.306Z,984.37
2024-01-15T01:52:59.702Z,984.32
2024-01-15T01:53:18.537Z,984.34
2024-01-15T01:53:27.935Z,984.18
2024-01-15T01:53:37.322Z,984.22
2024-01-15T01:53:46.759Z,984.28
2024-01-15T01:53:56.154Z,984.32
2024-01-15T01:54:05.615Z,984.27
2024-01-15T01:54:24.412Z,984.37
2024-01-15T01:54:33.820Z,984.27
2024-01-15T01:54:43.238Z,984.30
2024-01-15T01:54:52.652Z,984.30
2024-01-15T01:55:01.991Z,984.26
2024-01-15T01:55:11.450Z,984.34
2024-01-15T01:55:30.249Z,984.24
2024-01-15T01:55:39.657Z,984.34
2024-01-15T01:55:49.086Z,984.28
2024-01-15T01:55:58.477Z,984.24
2024-01-15T01:56:07.903Z,984.22
2024-01-15T01:56:17.308Z,984.29
2024-01-15T01:56:36.130Z,984.24
2024-01-15T01:56:45.592Z,984.25
2024-01-15T01:56:54.962Z,984.22
2024-01-15T01:57:04.493Z,984.16
2024-01-15T01:57:13.828Z,984.22
2024-01-15T01:57:23.270Z,984.21
2024-01-15T01:57:42.139Z,984.20
2024-01-15T01:57:51.549Z,984.20
2024-01-15T01:58:00.916Z,984.20
2024-01-15T01:58:10.347Z,984.17
2024-01-15T01:58:19.772Z,984.24
2024-01-15T01:58:29.183Z,984.18
2024-01-15T01:58:47.987Z,984.14
2024-01-15T01:58:57.379Z,984.18
2024-01-15T01:59:06.824Z,984.03
2024-01-15T01:59:16.218Z,984.13
2024-01-15T01:59:25.617Z,984.04
2024-01-15T01:59:35.032Z,984.13
2024-01-15T01:59:53.871Z,984.24
2024-01-15T02:00:03.326Z,983.99
2024-01-15T02:00:12.758Z,984.18
2024-01-15T02:00:22.159Z,984.05
2024-01-15T02:00:31.542Z,984.04
2024-01-15T02:00:40.981Z,984.01
2024-01-15T02:00:59.834Z,983.95
2024-01-15T02:01:09.396Z,983.96
2024-01-15T02:01:18.556Z,983.99
2024-01-15T02:01:27.985Z,984.00
2024-01-15T02:01:37.409Z,984.04
2024-01-15T02:01:46.755Z,983.95
2024-01-15T02:02:05.694Z,983.95
2024-01-15T02:02:14.936Z,983.97
2024-01-15T02:02:24.426Z,983.96
2024-01-15T02:02:33.736Z,983.93
2024-01-15T02:02:43.134Z,983.97
2024-01-15T02:02:52.520Z,984.01
2024-01-15T02:03:11.334Z,984.02
2024-01-15T02:03:20.768Z,983.97
2024-01-15T02:03:30.297Z,983.90
2024-01-15T02:03:39.676Z,984.02
2024-01-15T02:03:49.127Z,983.93
2024-01-15T02:03:58.686Z,983.86
2024-01-15T02:04:20.775Z,983.91
2024-01-15T02:04:26.900Z,983.89
2024-01-15T02:04:36.269Z,983.84
2024-01-15T02:04:45.739Z,983.86
2024-01-15T02:04:55.073Z,983.89
2024-01-15T02:05:04.484Z,983.89
2024-01-15T02:05:23.375Z,983.91
2024-01-15T02:05:32.592Z,983.85
2024-01-15T02:05:42.017Z,983.82
2024-01-15T02:05:51.419Z,983.84
2024-01-15T02:06:00.854Z,983.83
2024-01-15T02:06:10.364Z,983.84
2024-01-15T02:06:29.211Z,983.77
2024-01-15T02:06:38.569Z,983.79
2024-01-15T02:06:47.815Z,983.80
2024-01-15T02:06:57.336Z,983.78
2024-01-15T02:07:06.605Z,983.74
2024-01-15T02:07:16.054Z,983.76
2024-01-15T02:07:34.799Z,983.79
2024-01-15T02:07:44.172Z,983.80
2024-01-15T02:07:53.604Z,983.74
2024-01-15T02:08:03.022Z,983.81
2024-01-15T02:08:12.429Z,983.80
2024-01-15T02:08:21.809Z,983.75
2024-01-15T02:08:40.611Z,983.75
2024-01-15T02:08:50.030Z,983.79
2024-01-15T02:08:59.396Z,983.71
2024-01-15T02:09:08.830Z,983.71
2024-01-15T02:09:18.241Z,983.68
2024-01-15T02:09:27.671Z,983.71
2024-01-15T02:09:46.714Z,983.74
2024-01-15T02:09:56.044Z,983.74
2024-01-15T02:10:05.382Z,983.71
2024-01-15T02:10:14.778Z,983.80
2024-01-15T02:10:24.234Z,983.69
2024-01-15T02:10:33.625Z,983.78
2024-01-15T02:10:52.423Z,983.69
2024-01-15T02:11:01.823Z,983.72
2024-01-15T02:11:11.209Z,983.72
2024-01-15T02:11:20.597Z,983.68
2024-01-15T02:11:29.973Z,983.74
2024-01-15T02:11:39.379Z,983.73
2024-01-15T02:11:58.184Z,983.63
2024-01-15T02:12:07.648Z,983.65
2024-01-15T02:12:16.981Z,983.72
2024-01-15T02:12:26.396Z,983.69
2024-01-15T02:12:35.860Z,983.68
2024-01-15T02:12:45.327Z,983.73
2024-01-15T02:13:04.036Z,983.76
2024-01-15T02:13:13.449Z,983.56
2024-01-15T02:13:22.839Z,983.73
2024-01-15T02:13:32.241Z,983.68
2024-01-15T02:13:41.630Z,983.74
2024-01-15T02:13:51.000Z,983.68
2024-01-15T02:14:09.778Z,983.66
2024-01-15T02:14:19.251Z,983.64
2024-01-15T02:14:28.655Z,983.67
2024-01-15T02:14:38.033Z,983.65
2024-01-15T02:14:47.449Z,983.66
2024-01-15T02:14:56.823Z,983.69
2024-01-15T02:15:15.611Z,983.69
2024-01-15T02:15:25.042Z,983.68
2024-01-15T02:15:34.497Z,983.70
2024-01-15T02:15:43.853Z,983.67
2024-01-15T02:15:53.339Z,983.63
2024-01-15T02:16:02.624Z,983.68
2024-01-15T02:16:21.476Z,983.73
2024-01-15T02:16:30.841Z,983.75
2024-01-15T02:16:40.248Z,983.69
2024-01-15T02:16:49.620Z,983.69
2024-01-15T02:16:59.035Z,983.73
2024-01-15T02:17:08.452Z,983.74